createdAt,value
2022-07-29T00:02:26.559Z,69.40
2022-07-29T00:04:53.315Z,69.25
2022-07-29T00:07:20.023Z,69.16
2022-07-29T00:09:51.541Z,69.10
2022-07-29T00:12:25.541Z,69.41
2022-07-29T00:14:57.159Z,69.57
2022-07-29T00:17:24.915Z,69.44
2022-07-29T00:19:52.052Z,69.67
2022-07-29T00:22:19.143Z,69.78
2022-07-29T00:24:45.796Z,69.77
2022-07-29T00:27:12.424Z,69.57
2022-07-29T00:29:39.107Z,69.64
2022-07-29T00:32:06.023Z,69.58
2022-07-29T00:35:05.112Z,69.64
2022-07-29T00:37:31.752Z,69.45
2022-07-29T00:39:58.353Z,69.43
2022-07-29T00:42:25.000Z,69.33
2022-07-29T00:44:51.626Z,69.47
2022-07-29T00:47:18.261Z,70.04
2022-07-29T00:49:45.134Z,70.39
2022-07-29T00:52:12.828Z,70.37
2022-07-29T00:54:44.845Z,70.50
2022-07-29T00:57:12.751Z,71.10
2022-07-29T00:59:39.494Z,71.21
2022-07-29T01:02:06.319Z,71.47
2022-07-29T01:04:33.232Z,71.65
2022-07-29T01:07:05.105Z,71.71
2022-07-29T01:09:46.222Z,71.86
2022-07-29T01:12:24.044Z,71.85
2022-07-29T01:14:52.173Z,71.85
2022-07-29T01:17:25.097Z,72.30
2022-07-29T01:19:58.250Z,72.35
2022-07-29T01:22:46.289Z,72.29
2022-07-29T01:25:42.144Z,72.35
2022-07-29T01:28:29.669Z,72.25
2022-07-29T01:30:57.659Z,71.93
2022-07-29T01:33:46.551Z,72.02
2022-07-29T01:36:17.404Z,72.17
2022-07-29T01:38:50.905Z,72.34
2022-07-29T01:41:20.654Z,72.26
2022-07-29T01:44:00.328Z,72.66
2022-07-29T01:46:38.304Z,72.75
2022-07-29T01:49:34.491Z,73.31
2022-07-29T01:52:06.555Z,73.14
2022-07-29T01:54:52.075Z,73.54
2022-07-29T01:57:22.060Z,73.91
2022-07-29T01:59:50.896Z,74.00
2022-07-29T02:02:19.947Z,73.54
2022-07-29T02:04:49.792Z,73.82
2022-07-29T02:07:20.439Z,73.79
2022-07-29T02:09:50.453Z,73.71
2022-07-29T02:12:19.276Z,73.64
2022-07-29T02:14:51.509Z,74.04
2022-07-29T02:17:27.414Z,74.10
2022-07-29T02:19:58.265Z,73.78
2022-07-29T02:22:27.038Z,74.39
2022-07-29T02:24:54.566Z,74.77
2022-07-29T02:27:22.676Z,74.79
2022-07-29T02:29:51.360Z,74.51
2022-07-29T02:32:19.360Z,74.70
2022-07-29T02:34:47.379Z,74.99
2022-07-29T02:37:15.128Z,75.66
2022-07-29T02:39:44.778Z,76.82
2022-07-29T02:42:16.091Z,76.98
2022-07-29T02:44:43.315Z,77.96
2022-07-29T02:47:30.649Z,78.26
2022-07-29T02:50:16.636Z,77.83
2022-07-29T02:52:53.516Z,78.64
2022-07-29T02:56:06.048Z,78.38
2022-07-29T02:58:39.135Z,78.90
2022-07-29T03:01:19.327Z,79.09
2022-07-29T03:03:50.389Z,79.54
2022-07-29T03:06:28.817Z,80.37
2022-07-29T03:09:10.485Z,80.67
2022-07-29T03:11:46.040Z,80.96
2022-07-29T03:14:21.359Z,80.97
2022-07-29T03:16:49.344Z,81.70
2022-07-29T03:19:16.552Z,82.93
2022-07-29T03:21:43.332Z,81.87
2022-07-29T03:24:10.729Z,82.39
2022-07-29T03:26:38.002Z,82.19
2022-07-29T03:29:04.651Z,82.83
2022-07-29T03:31:32.185Z,82.44
2022-07-29T03:34:00.604Z,82.91
2022-07-29T03:36:27.280Z,82.13
2022-07-29T03:38:54.314Z,81.76
2022-07-29T03:41:23.572Z,82.42
2022-07-29T03:43:51.996Z,82.61
2022-07-29T03:46:21.859Z,83.01
2022-07-29T03:48:54.007Z,81.72
2022-07-29T03:51:33.643Z,80.71
2022-07-29T03:54:06.370Z,80.59
2022-07-29T03:56:40.829Z,80.63
2022-07-29T03:59:08.422Z,79.62
2022-07-29T04:01:36.348Z,78.81
2022-07-29T04:04:03.761Z,78.21
2022-07-29T04:06:30.453Z,78.20
2022-07-29T04:08:57.074Z,78.24
2022-07-29T04:11:23.933Z,78.64
2022-07-29T04:13:50.576Z,78.35
2022-07-29T04:16:17.263Z,77.97
2022-07-29T04:18:43.876Z,78.07
2022-07-29T04:21:10.517Z,78.38
2022-07-29T04:23:47.500Z,79.61
2022-07-29T04:26:21.336Z,78.97
2022-07-29T04:28:47.978Z,78.66
2022-07-29T04:31:14.871Z,78.51
2022-07-29T04:33:41.500Z,78.43
2022-07-29T04:36:28.600Z,79.31
2022-07-29T04:38:54.843Z,79.86
2022-07-29T04:41:21.477Z,79.54
2022-07-29T04:43:48.596Z,78.23
2022-07-29T04:46:15.319Z,78.96
2022-07-29T04:48:42.141Z,79.04
2022-07-29T04:51:08.977Z,78.69
2022-07-29T04:53:35.552Z,79.18
2022-07-29T04:56:02.856Z,79.39
2022-07-29T04:58:29.549Z,77.75
2022-07-29T05:00:56.235Z,77.42
2022-07-29T05:03:22.837Z,77.62
2022-07-29T05:05:49.407Z,76.85
2022-07-29T05:08:16.071Z,76.70
2022-07-29T05:10:42.720Z,77.30
2022-07-29T05:13:09.460Z,76.54
2022-07-29T05:15:36.885Z,75.30
2022-07-29T05:18:04.025Z,74.21
2022-07-29T05:20:31.700Z,71.74
2022-07-29T05:23:00.131Z,71.68
2022-07-29T05:25:40.807Z,71.41
2022-07-29T05:28:10.708Z,72.13
2022-07-29T05:30:37.379Z,72.41
2022-07-29T05:33:04.103Z,71.12
2022-07-29T05:35:30.751Z,68.67
2022-07-29T05:37:57.355Z,68.54
2022-07-29T05:40:24.006Z,67.24
2022-07-29T05:42:50.590Z,64.50
2022-07-29T05:45:17.197Z,61.26
2022-07-29T05:47:43.833Z,58.48
2022-07-29T05:50:10.649Z,55.53
2022-07-29T05:52:37.312Z,54.50
2022-07-29T05:55:06.441Z,54.93
2022-07-29T05:57:33.551Z,54.91
2022-07-29T06:00:00.247Z,55.03
2022-07-29T06:02:26.898Z,52.99
2022-07-29T06:04:53.967Z,54.42
2022-07-29T06:07:20.918Z,56.01
2022-07-29T06:09:47.592Z,55.09
2022-07-29T06:12:14.223Z,55.14
2022-07-29T06:14:41.177Z,54.39
2022-07-29T06:17:07.995Z,53.20
2022-07-29T06:19:37.525Z,48.15
2022-07-29T06:22:04.591Z,46.49
2022-07-29T06:24:31.732Z,43.14
2022-07-29T06:26:58.468Z,43.88
2022-07-29T06:29:25.414Z,43.21
2022-07-29T06:31:52.072Z,41.33
2022-07-29T06:34:19.254Z,40.65
2022-07-29T06:36:47.491Z,39.75
2022-07-29T06:39:14.945Z,39.97
2022-07-29T06:41:42.945Z,38.75
2022-07-29T06:44:12.247Z,37.21
2022-07-29T06:46:39.019Z,36.30
2022-07-29T06:49:05.942Z,37.01
2022-07-29T06:51:32.911Z,36.11
2022-07-29T06:54:02.755Z,37.76
2022-07-29T06:56:38.696Z,36.31
2022-07-29T06:59:07.521Z,35.83
2022-07-29T07:01:34.177Z,35.71
2022-07-29T07:04:00.893Z,35.75
2022-07-29T07:06:27.904Z,37.62
2022-07-29T07:08:54.765Z,36.32
2022-07-29T07:11:21.685Z,35.40
2022-07-29T07:13:48.295Z,35.24
2022-07-29T07:16:15.245Z,34.94
2022-07-29T07:18:41.885Z,34.33
2022-07-29T07:21:08.592Z,34.72
2022-07-29T07:23:35.425Z,35.74
2022-07-29T07:26:02.167Z,35.32
2022-07-29T07:28:28.850Z,35.33
2022-07-29T07:30:55.580Z,36.56
2022-07-29T07:33:22.217Z,35.20
2022-07-29T07:35:48.862Z,34.58
2022-07-29T07:38:15.444Z,35.25
2022-07-29T07:40:42.366Z,36.07
2022-07-29T07:43:09.020Z,36.90
2022-07-29T07:45:38.148Z,37.20
2022-07-29T07:48:05.833Z,38.04
2022-07-29T07:50:32.646Z,37.95
2022-07-29T07:52:59.368Z,37.54
2022-07-29T07:55:26.956Z,36.48
2022-07-29T07:57:54.569Z,37.19
2022-07-29T08:00:23.214Z,37.79
2022-07-29T08:02:51.213Z,35.88
2022-07-29T08:05:18.326Z,36.33
2022-07-29T08:07:46.617Z,36.64
2022-07-29T08:10:14.769Z,36.83
2022-07-29T08:12:42.576Z,36.52
2022-07-29T08:15:09.869Z,36.41
2022-07-29T08:17:36.562Z,35.73
2022-07-29T08:20:04.072Z,36.10
2022-07-29T08:22:30.720Z,36.21
2022-07-29T08:24:57.376Z,35.63
2022-07-29T08:27:42.961Z,35.38
2022-07-29T08:30:11.325Z,35.29
2022-07-29T08:32:53.155Z,35.92
2022-07-29T08:35:22.701Z,35.20
2022-07-29T08:37:49.436Z,35.29
2022-07-29T08:40:16.403Z,35.75
2022-07-29T08:42:43.203Z,35.46
2022-07-29T08:45:10.730Z,35.74
2022-07-29T08:47:40.886Z,35.96
2022-07-29T08:50:11.144Z,36.36
2022-07-29T08:52:39.944Z,35.74
2022-07-29T08:55:08.788Z,35.70
2022-07-29T08:57:37.285Z,36.93
2022-07-29T09:00:11.901Z,37.67
2022-07-29T09:02:47.510Z,36.51
2022-07-29T09:05:15.376Z,36.55
2022-07-29T09:07:44.347Z,36.99
2022-07-29T09:10:11.393Z,37.33
2022-07-29T09:12:38.502Z,35.59
2022-07-29T09:15:05.876Z,37.02
2022-07-29T09:17:47.622Z,36.23
2022-07-29T09:20:26.371Z,36.54
2022-07-29T09:22:54.576Z,34.06
2022-07-29T09:25:37.975Z,33.55
2022-07-29T09:28:16.047Z,33.70
2022-07-29T09:30:52.629Z,34.95
2022-07-29T09:33:19.977Z,34.90
2022-07-29T09:35:56.580Z,35.08
2022-07-29T09:38:23.913Z,34.57
2022-07-29T09:41:05.594Z,34.35
2022-07-29T09:43:33.578Z,33.50
2022-07-29T09:46:13.695Z,32.74
2022-07-29T09:48:40.637Z,33.19
2022-07-29T09:51:24.210Z,33.35
2022-07-29T09:53:55.366Z,33.36
2022-07-29T09:56:40.011Z,33.40
2022-07-29T09:59:07.944Z,32.28
2022-07-29T10:01:35.302Z,33.00
2022-07-29T10:04:01.918Z,31.87
2022-07-29T10:06:29.372Z,32.61
2022-07-29T10:09:12.019Z,31.00
2022-07-29T10:11:49.081Z,32.02
2022-07-29T10:14:17.202Z,30.92
2022-07-29T10:16:44.402Z,31.37
2022-07-29T10:19:11.417Z,31.03
2022-07-29T10:21:40.793Z,31.32
2022-07-29T10:24:14.996Z,30.72
2022-07-29T10:26:42.900Z,31.91
2022-07-29T10:29:09.603Z,31.42
2022-07-29T10:32:01.009Z,31.02
2022-07-29T10:34:54.153Z,31.22
2022-07-29T10:37:55.045Z,31.97
2022-07-29T10:41:19.378Z,32.03
2022-07-29T10:43:51.099Z,32.31
2022-07-29T10:46:19.526Z,32.90
2022-07-29T10:49:05.345Z,33.39
2022-07-29T10:51:54.447Z,32.51
2022-07-29T10:54:44.669Z,32.50
2022-07-29T10:57:53.185Z,31.55
2022-07-29T11:00:16.993Z,32.99
2022-07-29T11:02:46.311Z,32.95
2022-07-29T11:05:19.921Z,32.70
2022-07-29T11:08:19.983Z,32.55
2022-07-29T11:10:49.567Z,32.28
2022-07-29T11:13:54.242Z,31.81
2022-07-29T11:16:25.109Z,32.67
2022-07-29T11:19:14.172Z,32.13
2022-07-29T11:21:54.700Z,33.83
2022-07-29T11:24:28.797Z,32.91
2022-07-29T11:27:18.136Z,32.53
2022-07-29T11:29:55.704Z,31.92
2022-07-29T11:32:24.225Z,32.28
2022-07-29T11:35:17.258Z,33.63
2022-07-29T11:37:52.811Z,31.94
2022-07-29T11:40:23.049Z,32.37
2022-07-29T11:42:51.992Z,32.02
2022-07-29T11:48:31.363Z,32.59
2022-07-29T11:51:00.054Z,32.41
2022-07-29T11:53:28.960Z,32.86
2022-07-29T11:56:00.476Z,33.75
2022-07-29T11:58:28.465Z,32.47
2022-07-29T12:00:56.270Z,32.18
2022-07-29T12:03:33.279Z,32.22
2022-07-29T12:06:21.247Z,32.29
2022-07-29T12:07:03.951Z,32.23
2022-07-29T12:08:48.098Z,32.50
2022-07-29T12:11:23.270Z,31.56
2022-07-29T12:13:53.904Z,31.58
2022-07-29T12:16:25.462Z,32.05
2022-07-29T12:18:59.451Z,30.85
2022-07-29T12:21:26.791Z,30.49
2022-07-29T12:23:57.748Z,31.12
2022-07-29T12:26:28.763Z,30.07
2022-07-29T12:28:55.653Z,30.04
2022-07-29T12:31:43.898Z,30.69
2022-07-29T12:34:11.381Z,30.53
2022-07-29T12:36:38.434Z,30.20
2022-07-29T12:39:05.651Z,29.52
2022-07-29T12:41:32.634Z,29.71
2022-07-29T12:43:59.296Z,29.74
2022-07-29T12:46:25.962Z,29.01
2022-07-29T12:48:55.869Z,29.86
2022-07-29T12:51:37.058Z,29.07
2022-07-29T12:54:15.425Z,29.28
2022-07-29T12:56:44.997Z,28.81
2022-07-29T12:59:16.960Z,28.19
2022-07-29T13:01:44.233Z,28.44
2022-07-29T13:04:10.991Z,29.49
2022-07-29T13:06:50.984Z,29.23
2022-07-29T13:09:23.487Z,29.21
2022-07-29T13:11:51.707Z,29.54
2022-07-29T13:14:38.533Z,29.42
2022-07-29T13:17:11.155Z,29.13
2022-07-29T13:19:45.410Z,29.29
2022-07-29T13:22:14.221Z,29.56
2022-07-29T13:25:10.275Z,28.96
2022-07-29T13:27:38.886Z,29.06
2022-07-29T13:30:08.440Z,29.91
2022-07-29T13:32:35.964Z,30.35
2022-07-29T13:35:05.780Z,30.17
2022-07-29T13:37:35.199Z,31.06
2022-07-29T13:40:04.186Z,32.06
2022-07-29T13:42:31.565Z,30.16
2022-07-29T13:44:58.495Z,30.49
2022-07-29T13:47:32.303Z,30.26
2022-07-29T13:50:00.784Z,31.20
2022-07-29T13:52:27.472Z,30.71
2022-07-29T13:54:54.088Z,30.66
2022-07-29T13:57:20.745Z,30.42
2022-07-29T13:59:51.884Z,30.52
2022-07-29T14:02:20.482Z,30.86
2022-07-29T14:04:47.236Z,30.85
2022-07-29T14:07:16.390Z,31.00
2022-07-29T14:09:43.628Z,32.05
2022-07-29T14:12:10.628Z,32.24
2022-07-29T14:14:37.734Z,32.45
2022-07-29T14:17:07.518Z,33.72
2022-07-29T14:19:39.328Z,34.62
2022-07-29T14:22:07.618Z,39.63
2022-07-29T14:24:37.252Z,43.46
2022-07-29T14:27:05.545Z,43.73
2022-07-29T14:29:37.537Z,42.56
2022-07-29T14:32:07.480Z,46.96
2022-07-29T14:34:35.280Z,48.18
2022-07-29T14:37:02.021Z,45.68
2022-07-29T14:39:31.761Z,43.07
2022-07-29T14:41:59.307Z,41.92
2022-07-29T14:44:32.167Z,42.95
2022-07-29T14:47:07.580Z,42.36
2022-07-29T14:49:35.120Z,42.53
2022-07-29T14:52:02.116Z,41.72
2022-07-29T14:54:28.814Z,42.27
2022-07-29T14:56:58.177Z,43.20
2022-07-29T14:59:25.569Z,42.77
2022-07-29T15:01:52.167Z,42.48
2022-07-29T15:04:18.812Z,41.98
2022-07-29T15:06:45.456Z,41.66
2022-07-29T15:09:12.144Z,42.32
2022-07-29T15:11:39.068Z,42.16
2022-07-29T15:14:06.905Z,40.63
2022-07-29T15:16:34.122Z,40.30
2022-07-29T15:19:01.870Z,40.59
2022-07-29T15:21:28.747Z,41.23
2022-07-29T15:23:55.421Z,41.05
2022-07-29T15:26:22.443Z,39.91
2022-07-29T15:28:49.403Z,40.11
2022-07-29T15:31:16.261Z,40.42
2022-07-29T15:33:42.962Z,41.49
2022-07-29T15:36:09.763Z,41.46
2022-07-29T15:38:41.720Z,40.26
2022-07-29T15:41:08.805Z,39.69
2022-07-29T15:43:38.388Z,38.38
2022-07-29T15:46:23.651Z,39.80
2022-07-29T15:48:50.395Z,39.64
2022-07-29T15:51:17.040Z,40.68
2022-07-29T15:53:43.680Z,40.49
2022-07-29T15:56:20.079Z,40.47
2022-07-29T15:58:46.672Z,40.98
2022-07-29T16:01:13.295Z,41.22
2022-07-29T16:03:44.308Z,41.93
2022-07-29T16:06:13.010Z,41.70
2022-07-29T16:08:39.748Z,41.55
2022-07-29T16:11:06.371Z,42.30
2022-07-29T16:13:32.963Z,42.36
2022-07-29T16:16:02.352Z,41.58
2022-07-29T16:18:30.517Z,42.39
2022-07-29T16:20:57.568Z,42.43
2022-07-29T16:23:24.787Z,42.43
2022-07-29T16:25:59.660Z,42.75
2022-07-29T16:28:27.550Z,42.73
2022-07-29T16:30:54.203Z,42.34
2022-07-29T16:33:20.908Z,42.47
2022-07-29T16:35:47.465Z,43.06
2022-07-29T16:38:14.077Z,43.10
2022-07-29T16:40:40.684Z,43.45
2022-07-29T16:43:07.620Z,43.39
2022-07-29T16:45:43.864Z,44.61
2022-07-29T16:48:12.553Z,44.75
2022-07-29T16:50:39.690Z,45.50
2022-07-29T16:53:06.772Z,45.57
2022-07-29T16:55:33.692Z,45.31
2022-07-29T16:58:00.584Z,45.50
2022-07-29T17:00:27.335Z,46.10
2022-07-29T17:02:53.907Z,45.26
2022-07-29T17:05:20.554Z,45.71
2022-07-29T17:07:47.611Z,45.69
2022-07-29T17:10:14.351Z,45.21
2022-07-29T17:12:41.599Z,45.58
2022-07-29T17:15:11.162Z,46.24
2022-07-29T17:17:55.461Z,46.31
2022-07-29T17:20:23.973Z,46.37
2022-07-29T17:22:50.693Z,46.78
2022-07-29T17:25:21.110Z,44.72
2022-07-29T17:27:50.614Z,44.92
2022-07-29T17:30:18.149Z,44.36
2022-07-29T17:32:44.797Z,44.30
2022-07-29T17:35:29.718Z,44.30
2022-07-29T17:37:56.437Z,45.20
2022-07-29T17:40:23.669Z,47.62
2022-07-29T17:42:50.613Z,48.37
2022-07-29T17:45:17.522Z,49.13
2022-07-29T17:47:45.135Z,51.06
2022-07-29T17:50:11.916Z,51.76
2022-07-29T17:52:39.243Z,52.88
2022-07-29T17:55:07.107Z,54.15
2022-07-29T17:57:34.144Z,55.42
2022-07-29T18:00:00.775Z,56.15
2022-07-29T18:02:28.381Z,57.00
2022-07-29T18:04:55.213Z,57.02
2022-07-29T18:07:21.801Z,57.68
2022-07-29T18:09:48.490Z,58.80
2022-07-29T18:12:15.226Z,60.18
2022-07-29T18:14:41.860Z,59.80
2022-07-29T18:17:08.763Z,60.05
2022-07-29T18:19:35.391Z,60.07
2022-07-29T18:22:05.082Z,62.65
2022-07-29T18:24:32.372Z,63.12
2022-07-29T18:26:59.291Z,61.82
2022-07-29T18:29:29.024Z,63.95
2022-07-29T18:31:56.102Z,69.31
2022-07-29T18:34:22.755Z,76.57
2022-07-29T18:36:49.419Z,85.36
2022-07-29T18:39:20.437Z,92.10
2022-07-29T18:41:50.147Z,96.51
2022-07-29T18:44:17.715Z,97.13
2022-07-29T18:46:44.828Z,93.17
2022-07-29T18:49:14.415Z,93.30
2022-07-29T18:51:41.128Z,94.55
2022-07-29T18:54:09.225Z,92.78
2022-07-29T18:56:36.082Z,94.36
2022-07-29T18:59:03.121Z,95.66
2022-07-29T19:01:31.763Z,94.03
2022-07-29T19:03:59.232Z,93.94
2022-07-29T19:06:28.642Z,96.30
2022-07-29T19:08:56.477Z,97.01
2022-07-29T19:11:23.291Z,96.02
2022-07-29T19:13:49.968Z,99.36
2022-07-29T19:16:16.841Z,99.35
2022-07-29T19:18:44.654Z,100.00
2022-07-29T19:21:11.339Z,100.00
2022-07-29T19:23:59.435Z,100.00
2022-07-29T19:26:26.422Z,100.00
2022-07-29T19:28:53.340Z,100.00
2022-07-29T19:31:20.066Z,98.88
2022-07-29T19:33:46.754Z,98.41
2022-07-29T19:36:13.344Z,98.30
2022-07-29T19:38:40.514Z,98.16
2022-07-29T19:41:07.193Z,97.24
2022-07-29T19:43:52.093Z,96.06
2022-07-29T19:46:20.979Z,95.79
2022-07-29T19:48:47.934Z,95.62
2022-07-29T19:51:14.701Z,96.60
2022-07-29T19:53:41.377Z,96.41
2022-07-29T19:56:08.759Z,96.83
2022-07-29T19:58:36.161Z,96.65
2022-07-29T20:01:02.882Z,97.75
2022-07-29T20:03:39.879Z,96.80
2022-07-29T20:06:07.513Z,97.20
2022-07-29T20:08:34.189Z,98.47
2022-07-29T20:11:00.876Z,100.00
2022-07-29T20:13:27.581Z,100.00
2022-07-29T20:15:54.307Z,100.00
2022-07-29T20:18:21.079Z,99.49
2022-07-29T20:20:49.579Z,99.91
2022-07-29T20:23:16.602Z,100.00
2022-07-29T20:25:43.282Z,99.63
2022-07-29T20:28:09.887Z,100.00
2022-07-29T20:30:38.417Z,100.00
2022-07-29T20:33:05.558Z,100.00
2022-07-29T20:35:32.253Z,100.00
2022-07-29T20:37:59.807Z,100.00
2022-07-29T20:40:27.632Z,100.00
2022-07-29T20:42:55.605Z,100.00
2022-07-29T20:45:23.769Z,100.00
2022-07-29T20:47:51.860Z,100.00
2022-07-29T20:50:20.591Z,100.00
2022-07-29T20:52:51.662Z,100.00
2022-07-29T20:55:18.279Z,100.00
2022-07-29T20:57:44.852Z,100.00
2022-07-29T21:00:11.995Z,100.00
2022-07-29T21:02:38.941Z,100.00
2022-07-29T21:05:06.236Z,100.00
2022-07-29T21:07:32.927Z,100.00
2022-07-29T21:09:59.621Z,100.00
2022-07-29T21:12:26.340Z,100.00
2022-07-29T21:14:52.895Z,100.00
2022-07-29T21:17:22.604Z,100.00
2022-07-29T21:19:52.820Z,100.00
2022-07-29T21:22:21.885Z,100.00
2022-07-29T21:24:49.320Z,100.00
2022-07-29T21:27:34.978Z,100.00
2022-07-29T21:30:06.515Z,100.00
2022-07-29T21:32:33.238Z,100.00
2022-07-29T21:35:00.052Z,100.00
2022-07-29T21:37:27.073Z,100.00
2022-07-29T21:39:53.708Z,100.00
2022-07-29T21:42:20.388Z,100.00
2022-07-29T21:44:47.073Z,100.00
2022-07-29T21:47:13.773Z,100.00
2022-07-29T21:49:40.383Z,100.00
2022-07-29T21:52:07.897Z,100.00
2022-07-29T21:54:34.875Z,100.00
2022-07-29T21:57:02.038Z,100.00
2022-07-29T21:59:29.220Z,100.00
2022-07-29T22:01:56.603Z,100.00
2022-07-29T22:04:23.367Z,100.00
2022-07-29T22:06:50.031Z,100.00
2022-07-29T22:09:16.690Z,100.00
2022-07-29T22:11:43.681Z,100.00
2022-07-29T22:14:10.344Z,100.00
2022-07-29T22:16:37.226Z,100.00
2022-07-29T22:19:04.129Z,100.00
2022-07-29T22:21:30.978Z,100.00
2022-07-29T22:23:58.144Z,100.00
2022-07-29T22:26:24.832Z,100.00
2022-07-29T22:28:51.487Z,100.00
2022-07-29T22:31:18.517Z,100.00
2022-07-29T22:33:45.189Z,100.00
2022-07-29T22:36:11.923Z,100.00
2022-07-29T22:38:38.592Z,100.00
2022-07-29T22:41:05.231Z,100.00
2022-07-29T22:43:32.031Z,100.00
2022-07-29T22:45:58.787Z,100.00
2022-07-29T22:48:25.439Z,100.00
2022-07-29T22:50:52.053Z,100.00
2022-07-29T22:53:18.730Z,100.00
2022-07-29T22:55:45.509Z,100.00
2022-07-29T22:58:12.534Z,100.00
2022-07-29T23:00:39.268Z,100.00
2022-07-29T23:03:05.934Z,100.00
2022-07-29T23:05:32.820Z,100.00
2022-07-29T23:08:00.025Z,100.00
2022-07-29T23:10:26.924Z,100.00
2022-07-29T23:12:53.557Z,100.00
2022-07-29T23:15:20.189Z,100.00
2022-07-29T23:17:46.834Z,100.00
2022-07-29T23:20:14.843Z,100.00
2022-07-29T23:22:41.831Z,100.00
2022-07-29T23:25:08.741Z,100.00
2022-07-29T23:27:35.403Z,100.00
2022-07-29T23:30:02.758Z,100.00
2022-07-29T23:32:29.435Z,100.00
2022-07-29T23:34:56.080Z,100.00
2022-07-29T23:37:23.290Z,100.00
2022-07-29T23:39:49.883Z,100.00
2022-07-29T23:42:16.518Z,100.00
2022-07-29T23:44:43.161Z,100.00
2022-07-29T23:47:09.962Z,100.00
2022-07-29T23:49:36.613Z,100.00
2022-07-29T23:52:03.385Z,100.00
2022-07-29T23:54:29.999Z,100.00
2022-07-29T23:56:58.014Z,100.00
2022-07-29T23:59:25.231Z,100.00
